Terminal Aerodrome Forecast
Issued by NWS

Home | Current Version | Previous Version | Text Only | Print | Product List | Glossary On
Versions: 1 2 3 4 5 6 7 8 9 10 11 12 13
000
FTUS44 KCRP 200500
TAFLRD
TAF
KLRD 200529Z 2006/2106 14015KT P6SM FEW015
      TEMPO 2011/2014 BKN015
     FM201700 16015KT P6SM SCT060
     FM210000 14020KT P6SM FEW070=

USA.gov is the U.S. government's official web portal to all federal, state and local government web resources and services.